createdAt,value
2022-12-22T00:01:06.568Z,5.58
2022-12-22T00:03:53.974Z,5.57
2022-12-22T00:06:39.444Z,5.57
2022-12-22T00:09:24.993Z,5.63
2022-12-22T00:12:10.488Z,5.69
2022-12-22T00:14:55.830Z,5.56
2022-12-22T00:17:47.046Z,5.61
2022-12-22T00:20:37.681Z,5.54
2022-12-22T00:23:30.853Z,5.56
2022-12-22T00:26:17.512Z,5.56
2022-12-22T00:29:02.918Z,5.52
2022-12-22T00:31:48.619Z,5.39
2022-12-22T00:34:39.296Z,5.29
2022-12-22T00:37:24.656Z,5.29
2022-12-22T00:40:10.043Z,5.23
2022-12-22T00:42:55.485Z,5.14
2022-12-22T00:45:41.014Z,5.17
2022-12-22T00:48:38.351Z,5.20
2022-12-22T00:51:23.637Z,5.23
2022-12-22T00:54:09.679Z,5.24
2022-12-22T00:56:54.936Z,5.24
2022-12-22T00:59:40.380Z,5.22
2022-12-22T01:02:28.915Z,5.25
2022-12-22T01:05:14.371Z,5.27
2022-12-22T01:07:59.611Z,5.32
2022-12-22T01:10:45.423Z,5.29
2022-12-22T01:13:32.817Z,5.34
2022-12-22T01:16:18.718Z,5.35
2022-12-22T01:19:04.010Z,5.38
2022-12-22T01:21:49.970Z,5.33
2022-12-22T01:24:37.021Z,5.29
2022-12-22T01:27:23.243Z,5.33
2022-12-22T01:30:08.783Z,5.32
2022-12-22T01:32:54.081Z,5.29
2022-12-22T01:35:44.925Z,5.33
2022-12-22T01:38:30.584Z,5.37
2022-12-22T01:41:17.099Z,5.31
2022-12-22T01:44:02.422Z,5.31
2022-12-22T01:46:54.860Z,5.32
2022-12-22T01:49:44.600Z,5.29
2022-12-22T01:52:32.213Z,5.29
2022-12-22T01:55:22.405Z,5.36
2022-12-22T01:58:07.830Z,5.35
2022-12-22T02:00:53.148Z,5.25
2022-12-22T02:03:41.233Z,5.36
2022-12-22T02:06:41.696Z,5.44
2022-12-22T02:09:34.575Z,5.38
2022-12-22T02:12:27.440Z,5.48
2022-12-22T02:15:20.653Z,5.53
2022-12-22T02:18:16.549Z,5.52
2022-12-22T02:21:08.537Z,5.45
2022-12-22T02:23:59.893Z,5.46
2022-12-22T02:26:57.385Z,5.46
2022-12-22T02:30:12.550Z,5.41
2022-12-22T02:33:05.370Z,5.36
2022-12-22T02:36:20.991Z,5.51
2022-12-22T02:39:15.825Z,5.37
2022-12-22T02:42:15.324Z,5.45
2022-12-22T02:45:10.047Z,5.56
2022-12-22T02:48:06.828Z,5.55
2022-12-22T02:51:04.862Z,5.53
2022-12-22T02:53:50.528Z,5.50
2022-12-22T02:56:35.793Z,5.52
2022-12-22T02:59:21.075Z,5.42
2022-12-22T03:02:06.579Z,5.41
2022-12-22T03:04:52.030Z,5.41
2022-12-22T03:07:37.262Z,5.43
2022-12-22T03:10:24.652Z,5.42
2022-12-22T03:13:09.963Z,5.49
2022-12-22T03:15:55.426Z,5.44
2022-12-22T03:18:40.794Z,5.41
2022-12-22T03:21:26.038Z,5.46
2022-12-22T03:24:11.458Z,5.41
2022-12-22T03:26:39.103Z,5.47
2022-12-22T03:29:05.740Z,5.49
2022-12-22T03:31:32.576Z,5.52
2022-12-22T03:33:59.306Z,5.46
2022-12-22T03:36:25.896Z,5.48
2022-12-22T03:38:52.564Z,5.52
2022-12-22T03:41:37.854Z,5.48
2022-12-22T03:44:23.133Z,5.46
2022-12-22T03:46:49.829Z,5.43
2022-12-22T03:49:16.515Z,5.42
2022-12-22T03:51:48.905Z,5.44
2022-12-22T03:54:18.605Z,5.42
2022-12-22T03:56:45.695Z,5.42
2022-12-22T03:59:15.743Z,5.36
2022-12-22T04:01:45.516Z,5.35
2022-12-22T04:04:14.064Z,5.55
2022-12-22T04:06:41.328Z,5.42
2022-12-22T04:09:08.013Z,5.39
2022-12-22T04:11:53.320Z,5.41
2022-12-22T04:14:20.758Z,5.34
2022-12-22T04:16:47.798Z,5.40
2022-12-22T04:19:14.709Z,5.50
2022-12-22T04:21:41.406Z,5.39
2022-12-22T04:24:08.426Z,5.34
2022-12-22T04:26:35.297Z,5.31
2022-12-22T04:29:02.057Z,5.31
2022-12-22T04:31:28.948Z,5.36
2022-12-22T04:33:55.581Z,5.33
2022-12-22T04:36:22.258Z,5.25
2022-12-22T04:38:48.893Z,5.30
2022-12-22T04:41:15.614Z,5.22
2022-12-22T04:43:42.244Z,5.22
2022-12-22T04:46:08.949Z,5.24
2022-12-22T04:48:35.922Z,5.31
2022-12-22T04:51:03.385Z,5.38
2022-12-22T04:53:30.722Z,5.29
2022-12-22T04:56:03.025Z,5.25
2022-12-22T04:58:29.924Z,5.28
2022-12-22T05:00:56.715Z,5.33
2022-12-22T05:03:23.871Z,5.31
2022-12-22T05:05:50.648Z,5.28
2022-12-22T05:08:17.231Z,5.22
2022-12-22T05:10:43.840Z,5.20
2022-12-22T05:13:10.520Z,5.23
2022-12-22T05:15:37.549Z,5.20
2022-12-22T05:18:04.658Z,5.25
2022-12-22T05:20:31.348Z,5.30
2022-12-22T05:22:58.649Z,5.34
2022-12-22T05:25:28.536Z,5.31
2022-12-22T05:27:58.174Z,5.32
2022-12-22T05:30:24.933Z,5.28
2022-12-22T05:32:51.585Z,5.27
2022-12-22T05:35:18.212Z,5.23
2022-12-22T05:37:44.829Z,5.19
2022-12-22T05:40:12.052Z,5.16
2022-12-22T05:42:39.423Z,5.20
2022-12-22T05:45:13.352Z,5.22
2022-12-22T05:47:39.991Z,5.19
2022-12-22T05:50:08.128Z,5.36
2022-12-22T05:52:34.825Z,5.34
2022-12-22T05:55:01.530Z,5.26
2022-12-22T05:57:28.217Z,5.36
2022-12-22T05:59:54.939Z,5.33
2022-12-22T06:02:21.791Z,5.33
2022-12-22T06:04:48.705Z,5.46
2022-12-22T06:07:15.383Z,5.43
2022-12-22T06:09:42.004Z,5.39
2022-12-22T06:12:09.063Z,5.36
2022-12-22T06:14:35.764Z,5.35
2022-12-22T06:17:02.486Z,5.43
2022-12-22T06:19:29.162Z,5.43
2022-12-22T06:21:55.843Z,5.38
2022-12-22T06:24:22.506Z,5.48
2022-12-22T06:26:49.122Z,5.47
2022-12-22T06:29:15.780Z,5.52
2022-12-22T06:31:42.740Z,5.60
2022-12-22T06:34:10.407Z,5.56
2022-12-22T06:36:38.936Z,5.64
2022-12-22T06:39:06.428Z,5.69
2022-12-22T06:41:51.855Z,5.62
2022-12-22T06:44:18.622Z,5.63
2022-12-22T06:46:45.306Z,5.69
2022-12-22T06:49:12.137Z,5.73
2022-12-22T06:51:38.802Z,5.66
2022-12-22T06:54:05.510Z,5.72
2022-12-22T06:56:32.228Z,5.72
2022-12-22T06:58:58.866Z,5.68
2022-12-22T07:01:25.649Z,5.75
2022-12-22T07:03:52.473Z,5.76
2022-12-22T07:06:19.260Z,5.89
2022-12-22T07:08:47.065Z,5.86
2022-12-22T07:11:14.848Z,5.76
2022-12-22T07:13:41.851Z,5.86
2022-12-22T07:16:10.314Z,5.81
2022-12-22T07:18:41.458Z,5.80
2022-12-22T07:21:10.895Z,5.79
2022-12-22T07:23:37.962Z,5.84
2022-12-22T07:26:05.976Z,5.88
2022-12-22T07:28:34.305Z,5.81
2022-12-22T07:31:01.061Z,5.89
2022-12-22T07:33:27.897Z,5.89
2022-12-22T07:36:05.717Z,5.89
2022-12-22T07:38:36.902Z,5.96
2022-12-22T07:41:05.550Z,5.90
2022-12-22T07:43:32.398Z,5.88
2022-12-22T07:45:59.009Z,5.85
2022-12-22T07:48:44.417Z,5.90
2022-12-22T07:51:11.148Z,5.90
2022-12-22T07:53:39.960Z,5.94
2022-12-22T07:56:07.014Z,5.88
2022-12-22T07:58:33.691Z,6.00
2022-12-22T08:01:01.321Z,6.01
2022-12-22T08:03:28.203Z,5.94
2022-12-22T08:05:54.912Z,6.00
2022-12-22T08:08:21.589Z,6.02
2022-12-22T08:10:48.182Z,5.96
2022-12-22T08:13:14.925Z,6.09
2022-12-22T08:15:41.629Z,6.01
2022-12-22T08:18:08.311Z,6.10
2022-12-22T08:20:35.164Z,6.03
2022-12-22T08:23:01.861Z,6.05
2022-12-22T08:25:29.510Z,6.03
2022-12-22T08:27:56.963Z,6.03
2022-12-22T08:30:23.777Z,6.09
2022-12-22T08:32:51.160Z,6.04
2022-12-22T08:35:18.515Z,6.05
2022-12-22T08:37:46.138Z,6.07
2022-12-22T08:40:16.280Z,6.03
2022-12-22T08:42:43.082Z,6.02
2022-12-22T08:45:11.366Z,6.07
2022-12-22T08:47:38.150Z,6.11
2022-12-22T08:50:05.451Z,6.17
2022-12-22T08:52:32.086Z,6.17
2022-12-22T08:54:58.718Z,6.17
2022-12-22T08:57:25.333Z,6.23
2022-12-22T08:59:51.935Z,6.27
2022-12-22T09:02:18.679Z,6.28
2022-12-22T09:04:45.548Z,6.25
2022-12-22T09:07:12.287Z,6.28
2022-12-22T09:09:38.881Z,6.28
2022-12-22T09:12:05.733Z,6.35
2022-12-22T09:14:32.850Z,6.37
2022-12-22T09:17:00.010Z,6.32
2022-12-22T09:19:26.684Z,6.30
2022-12-22T09:21:53.341Z,6.32
2022-12-22T09:24:19.982Z,6.35
2022-12-22T09:26:46.761Z,6.33
2022-12-22T09:29:15.455Z,6.37
2022-12-22T09:31:43.119Z,6.38
2022-12-22T09:34:16.766Z,6.35
2022-12-22T09:36:44.971Z,6.42
2022-12-22T09:39:11.724Z,6.41
2022-12-22T09:41:52.941Z,6.44
2022-12-22T09:44:22.741Z,6.51
2022-12-22T09:46:49.998Z,6.54
2022-12-22T09:49:18.640Z,6.54
2022-12-22T09:51:48.580Z,6.61
2022-12-22T09:54:16.209Z,6.58
2022-12-22T09:56:42.895Z,6.63
2022-12-22T09:59:17.754Z,6.69
2022-12-22T10:02:02.319Z,6.62
2022-12-22T10:04:31.861Z,6.59
2022-12-22T10:07:13.531Z,6.56
2022-12-22T10:09:55.498Z,6.63
2022-12-22T10:12:26.383Z,6.62
2022-12-22T10:14:54.004Z,6.63
2022-12-22T10:17:29.522Z,6.59
2022-12-22T10:20:21.771Z,6.57
2022-12-22T10:23:05.066Z,6.61
2022-12-22T10:26:00.544Z,6.60
2022-12-22T10:28:33.893Z,6.59
2022-12-22T10:31:19.651Z,6.62
2022-12-22T10:33:48.775Z,6.57
2022-12-22T10:36:21.045Z,6.58
2022-12-22T10:38:58.452Z,6.65
2022-12-22T10:41:28.014Z,6.61
2022-12-22T10:43:59.794Z,6.59
2022-12-22T10:46:49.916Z,6.64
2022-12-22T10:52:17.080Z,6.62
2022-12-22T10:54:45.072Z,6.63
2022-12-22T10:57:14.829Z,6.63
2022-12-22T10:59:48.748Z,6.61
2022-12-22T11:02:38.215Z,6.65
2022-12-22T11:05:08.208Z,6.65
2022-12-22T11:07:40.268Z,6.66
2022-12-22T11:10:31.866Z,6.68
2022-12-22T11:13:02.801Z,6.71
2022-12-22T11:15:57.839Z,6.72
2022-12-22T11:18:39.516Z,6.71
2022-12-22T11:21:24.824Z,6.70
2022-12-22T11:23:51.444Z,6.69
2022-12-22T11:26:36.852Z,6.69
2022-12-22T11:29:32.707Z,6.67
2022-12-22T11:32:21.595Z,6.64
2022-12-22T11:35:00.655Z,6.71
2022-12-22T11:37:31.810Z,6.66
2022-12-22T11:40:06.580Z,6.66
2022-12-22T11:43:11.243Z,6.67
2022-12-22T11:46:32.356Z,6.67
2022-12-22T11:49:14.667Z,6.72
2022-12-22T11:52:00.290Z,6.74
2022-12-22T11:54:45.441Z,6.76
2022-12-22T11:57:22.860Z,6.83
2022-12-22T12:00:11.704Z,6.87
2022-12-22T12:03:06.005Z,6.91
2022-12-22T12:06:01.093Z,6.91
2022-12-22T12:08:50.370Z,6.95
2022-12-22T12:11:27.433Z,6.96
2022-12-22T12:14:13.605Z,6.96
2022-12-22T12:16:44.502Z,6.94
2022-12-22T12:19:46.044Z,6.96
2022-12-22T12:22:37.688Z,6.95
2022-12-22T12:25:19.824Z,6.96
2022-12-22T12:28:08.258Z,6.97
2022-12-22T12:30:48.550Z,6.99
2022-12-22T12:33:30.962Z,6.99
2022-12-22T12:36:20.075Z,7.01
2022-12-22T12:39:08.870Z,7.04
2022-12-22T12:42:09.998Z,7.13
2022-12-22T12:44:37.107Z,7.17
2022-12-22T12:47:22.036Z,7.23
2022-12-22T12:49:58.915Z,7.27
2022-12-22T12:52:40.746Z,7.35
2022-12-22T12:55:32.638Z,7.32
2022-12-22T12:58:02.179Z,7.33
2022-12-22T13:00:31.895Z,7.32
2022-12-22T13:03:52.973Z,7.38
2022-12-22T13:06:57.131Z,7.38
2022-12-22T13:12:34.130Z,7.36
2022-12-22T13:15:01.891Z,7.41
2022-12-22T13:17:38.444Z,7.53
2022-12-22T13:20:06.549Z,7.41
2022-12-22T13:22:33.394Z,7.38
2022-12-22T13:25:02.175Z,7.41
2022-12-22T13:27:28.967Z,7.33
2022-12-22T13:29:55.622Z,7.31
2022-12-22T13:32:28.920Z,7.30
2022-12-22T13:35:30.837Z,7.29
2022-12-22T13:37:59.020Z,7.30
2022-12-22T13:40:28.365Z,7.33
2022-12-22T13:42:58.061Z,7.26
2022-12-22T13:45:32.073Z,7.33
2022-12-22T13:48:00.911Z,7.40
2022-12-22T13:50:41.860Z,7.34
2022-12-22T13:53:10.004Z,7.26
2022-12-22T13:55:37.239Z,7.26
2022-12-22T13:58:24.167Z,7.31
2022-12-22T14:01:17.200Z,7.36
2022-12-22T14:04:04.110Z,7.33
2022-12-22T14:06:36.026Z,7.28
2022-12-22T14:09:23.239Z,7.39
2022-12-22T14:11:58.018Z,7.37
2022-12-22T14:14:27.827Z,7.28
2022-12-22T14:16:57.684Z,7.32
2022-12-22T14:19:25.114Z,7.31
2022-12-22T14:22:03.626Z,7.28
2022-12-22T14:24:38.020Z,7.30
2022-12-22T14:27:06.281Z,7.23
2022-12-22T14:29:32.984Z,7.22
2022-12-22T14:32:02.041Z,7.19
2022-12-22T14:35:06.850Z,7.19
2022-12-22T14:37:40.681Z,7.21
2022-12-22T14:40:14.929Z,7.22
2022-12-22T14:42:44.740Z,7.20
2022-12-22T14:45:15.664Z,7.16
2022-12-22T14:47:42.337Z,7.14
2022-12-22T14:50:23.773Z,7.17
2022-12-22T14:52:53.057Z,7.16
2022-12-22T14:55:35.273Z,7.11
2022-12-22T14:58:32.693Z,7.13
2022-12-22T15:01:25.054Z,7.13
2022-12-22T15:04:16.804Z,7.15
2022-12-22T15:06:46.020Z,7.13
2022-12-22T15:09:15.706Z,7.18
2022-12-22T15:11:48.264Z,7.09
2022-12-22T15:14:18.015Z,7.06
2022-12-22T15:16:45.570Z,7.06
2022-12-22T15:19:14.495Z,7.07
2022-12-22T15:21:41.203Z,7.12
2022-12-22T15:24:16.825Z,7.11
2022-12-22T15:26:43.930Z,7.20
2022-12-22T15:29:11.022Z,7.31
2022-12-22T15:31:38.638Z,7.22
2022-12-22T15:34:11.739Z,7.20
2022-12-22T15:36:38.365Z,7.28
2022-12-22T15:39:04.987Z,7.33
2022-12-22T15:41:31.587Z,7.48
2022-12-22T15:43:59.153Z,7.44
2022-12-22T15:46:26.240Z,7.37
2022-12-22T15:48:53.108Z,7.44
2022-12-22T15:51:25.064Z,7.40
2022-12-22T15:53:52.089Z,7.33
2022-12-22T15:56:22.542Z,7.36
2022-12-22T15:58:49.375Z,7.32
2022-12-22T16:01:16.176Z,7.36
2022-12-22T16:03:43.078Z,7.30
2022-12-22T16:06:13.695Z,7.41
2022-12-22T16:08:43.416Z,7.36
2022-12-22T16:11:10.617Z,7.32
2022-12-22T16:13:37.839Z,7.32
2022-12-22T16:16:05.157Z,7.30
2022-12-22T16:18:32.973Z,7.33
2022-12-22T16:21:08.032Z,7.36
2022-12-22T16:23:35.894Z,7.22
2022-12-22T16:26:03.705Z,7.11
2022-12-22T16:28:31.017Z,7.13
2022-12-22T16:30:57.728Z,7.11
2022-12-22T16:33:24.661Z,7.06
2022-12-22T16:35:51.354Z,6.94
2022-12-22T16:38:19.276Z,6.86
2022-12-22T16:40:51.483Z,6.86
2022-12-22T16:46:13.452Z,6.56
2022-12-22T16:48:43.526Z,6.47
2022-12-22T16:51:18.216Z,6.44
2022-12-22T16:53:44.975Z,6.39
2022-12-22T16:56:18.120Z,6.42
2022-12-22T16:58:45.852Z,6.37
2022-12-22T17:01:36.879Z,6.31
2022-12-22T17:04:11.150Z,6.29
2022-12-22T17:06:40.458Z,6.23
2022-12-22T17:09:13.063Z,6.25
2022-12-22T17:11:42.514Z,6.10
2022-12-22T17:14:19.436Z,6.26
2022-12-22T17:16:46.149Z,6.10
2022-12-22T17:19:12.808Z,6.10
2022-12-22T17:21:39.582Z,6.04
2022-12-22T17:24:07.273Z,6.16
2022-12-22T17:26:34.639Z,6.17
2022-12-22T17:29:01.630Z,6.24
2022-12-22T17:31:28.857Z,6.08
2022-12-22T17:33:56.731Z,6.01
2022-12-22T17:36:32.362Z,5.97
2022-12-22T17:39:01.313Z,5.85
2022-12-22T17:41:28.108Z,5.78
2022-12-22T17:43:54.802Z,5.78
2022-12-22T17:46:22.121Z,5.71
2022-12-22T17:48:49.159Z,5.67
2022-12-22T17:51:28.273Z,5.60
2022-12-22T17:53:57.039Z,5.54
2022-12-22T17:56:25.420Z,5.48
2022-12-22T17:58:52.191Z,5.41
2022-12-22T18:01:27.869Z,5.36
2022-12-22T18:03:55.192Z,5.29
2022-12-22T18:06:25.714Z,5.22
2022-12-22T18:08:53.526Z,5.17
2022-12-22T18:11:20.428Z,5.06
2022-12-22T18:13:47.119Z,4.99
2022-12-22T18:16:16.257Z,4.98
2022-12-22T18:18:43.707Z,4.86
2022-12-22T18:21:20.143Z,4.80
2022-12-22T18:23:50.234Z,4.78
2022-12-22T18:26:21.227Z,4.71
2022-12-22T18:28:48.769Z,4.65
2022-12-22T18:31:15.505Z,4.60
2022-12-22T18:33:42.194Z,4.55
2022-12-22T18:36:16.608Z,4.48
2022-12-22T18:38:44.829Z,4.44
2022-12-22T18:41:17.145Z,4.39
2022-12-22T18:43:44.182Z,4.30
2022-12-22T18:46:11.392Z,4.35
2022-12-22T18:48:38.159Z,4.34
2022-12-22T18:51:17.296Z,4.43
2022-12-22T18:53:44.494Z,4.40
2022-12-22T18:56:14.595Z,4.41
2022-12-22T18:58:41.961Z,4.49
2022-12-22T19:01:17.373Z,4.53
2022-12-22T19:03:45.694Z,4.67
2022-12-22T19:06:13.718Z,4.73
2022-12-22T19:08:45.769Z,4.88
2022-12-22T19:11:13.792Z,4.89
2022-12-22T19:13:46.590Z,4.88
2022-12-22T19:16:16.004Z,4.86
2022-12-22T19:18:42.921Z,4.83
2022-12-22T19:21:13.271Z,4.86
2022-12-22T19:23:40.365Z,4.87
2022-12-22T19:26:09.497Z,4.97
2022-12-22T19:28:42.399Z,5.01
2022-12-22T19:31:11.628Z,5.13
2022-12-22T19:33:41.593Z,5.20
2022-12-22T19:36:16.518Z,5.31
2022-12-22T19:38:49.895Z,5.30
2022-12-22T19:41:30.494Z,5.28
2022-12-22T19:43:57.265Z,5.30
2022-12-22T19:46:26.110Z,5.25
2022-12-22T19:48:52.848Z,5.23
2022-12-22T19:51:19.682Z,5.23
2022-12-22T19:53:46.322Z,5.25
2022-12-22T19:56:21.463Z,5.19
2022-12-22T19:58:48.310Z,5.24
2022-12-22T20:01:15.088Z,5.22
2022-12-22T20:03:41.823Z,5.20
2022-12-22T20:06:08.967Z,5.23
2022-12-22T20:08:35.778Z,5.26
2022-12-22T20:11:02.714Z,5.26
2022-12-22T20:13:31.834Z,5.25
2022-12-22T20:15:58.997Z,5.20
2022-12-22T20:18:28.322Z,5.22
2022-12-22T20:21:04.544Z,5.28
2022-12-22T20:23:34.339Z,5.22
2022-12-22T20:26:04.252Z,5.22
2022-12-22T20:28:34.453Z,5.28
2022-12-22T20:31:02.667Z,5.36
2022-12-22T20:33:29.560Z,5.39
2022-12-22T20:35:58.169Z,5.40
2022-12-22T20:38:36.082Z,5.34
2022-12-22T20:41:05.064Z,5.41
2022-12-22T20:43:32.636Z,5.32
2022-12-22T20:46:22.982Z,5.28
2022-12-22T20:48:53.805Z,5.32
2022-12-22T20:51:21.518Z,5.30
2022-12-22T20:53:50.124Z,5.30
2022-12-22T20:56:26.953Z,5.34
2022-12-22T20:58:54.704Z,5.25
2022-12-22T21:01:21.643Z,5.19
2022-12-22T21:03:48.425Z,5.16
2022-12-22T21:06:29.277Z,5.17
2022-12-22T21:08:58.137Z,5.25
2022-12-22T21:11:25.171Z,5.25
2022-12-22T21:13:52.688Z,5.21
2022-12-22T21:16:23.163Z,5.29
2022-12-22T21:18:50.759Z,5.26
2022-12-22T21:21:17.371Z,5.13
2022-12-22T21:23:44.003Z,5.09
2022-12-22T21:26:19.110Z,5.08
2022-12-22T21:28:45.988Z,5.07
2022-12-22T21:31:12.610Z,5.13
2022-12-22T21:33:39.307Z,5.13
2022-12-22T21:36:15.554Z,5.13
2022-12-22T21:38:42.163Z,5.08
2022-12-22T21:41:08.879Z,5.15
2022-12-22T21:43:35.544Z,5.15
2022-12-22T21:46:02.389Z,5.09
2022-12-22T21:48:29.077Z,5.07
2022-12-22T21:50:55.759Z,5.12
2022-12-22T21:53:22.904Z,5.04
2022-12-22T21:55:52.160Z,5.01
2022-12-22T21:58:18.777Z,5.01
2022-12-22T22:00:48.167Z,4.99
2022-12-22T22:03:15.966Z,4.98
2022-12-22T22:05:43.152Z,5.01
2022-12-22T22:08:11.200Z,4.97
2022-12-22T22:10:40.331Z,4.97
2022-12-22T22:13:07.083Z,5.00
2022-12-22T22:16:14.829Z,4.91
2022-12-22T22:18:43.398Z,4.86
2022-12-22T22:21:11.041Z,4.83
2022-12-22T22:23:37.786Z,4.87
2022-12-22T22:26:05.176Z,4.86
2022-12-22T22:28:32.471Z,4.83
2022-12-22T22:30:59.872Z,4.80
2022-12-22T22:33:26.540Z,4.76
2022-12-22T22:35:53.992Z,4.77
2022-12-22T22:38:21.259Z,4.75
2022-12-22T22:40:49.104Z,4.76
2022-12-22T22:43:16.082Z,4.75
2022-12-22T22:45:46.505Z,4.79
2022-12-22T22:48:19.811Z,4.81
2022-12-22T22:50:46.463Z,4.79
2022-12-22T22:53:13.136Z,4.87
2022-12-22T22:55:39.821Z,4.86
2022-12-22T22:58:07.494Z,4.77
2022-12-22T23:00:34.246Z,4.77
2022-12-22T23:03:01.256Z,4.74
2022-12-22T23:05:27.996Z,4.74
2022-12-22T23:07:54.888Z,4.67
2022-12-22T23:10:21.517Z,4.74
2022-12-22T23:12:48.136Z,4.72
2022-12-22T23:15:15.166Z,4.79
2022-12-22T23:17:42.037Z,4.69
2022-12-22T23:20:11.570Z,4.74
2022-12-22T23:22:38.194Z,4.68
2022-12-22T23:25:05.079Z,4.64
2022-12-22T23:27:31.734Z,4.65
2022-12-22T23:29:58.357Z,4.67
2022-12-22T23:32:25.019Z,4.64
2022-12-22T23:34:53.297Z,4.70
2022-12-22T23:37:20.031Z,4.70
2022-12-22T23:39:49.092Z,4.67
2022-12-22T23:42:15.748Z,4.69
2022-12-22T23:44:42.361Z,4.61
2022-12-22T23:47:09.451Z,4.67
2022-12-22T23:49:36.314Z,4.60
2022-12-22T23:52:03.030Z,4.60
2022-12-22T23:54:30.400Z,4.59
2022-12-22T23:56:57.590Z,4.57
2022-12-22T23:59:24.257Z,4.55
